sensor_id;sensor_type;location;lat;lon;timestamp;temperature;humidity
38902;DHT22;24661;53.566;9.910;2023-02-19T00:01:25;4.90;99.90
38902;DHT22;24661;53.566;9.910;2023-02-19T00:03:53;4.80;99.90
38902;DHT22;24661;53.566;9.910;2023-02-19T00:06:20;4.80;99.90
38902;DHT22;24661;53.566;9.910;2023-02-19T00:08:46;4.80;99.90
38902;DHT22;24661;53.566;9.910;2023-02-19T00:11:14;4.80;99.90
38902;DHT22;24661;53.566;9.910;2023-02-19T00:13:43;4.70;99.90
38902;DHT22;24661;53.566;9.910;2023-02-19T00:16:13;4.80;99.90
38902;DHT22;24661;53.566;9.910;2023-02-19T00:18:39;4.90;99.90
38902;DHT22;24661;53.566;9.910;2023-02-19T00:21:05;4.90;99.90
38902;DHT22;24661;53.566;9.910;2023-02-19T00:23:31;4.90;99.90
38902;DHT22;24661;53.566;9.910;2023-02-19T00:26:01;4.90;99.90
38902;DHT22;24661;53.566;9.910;2023-02-19T00:28:27;4.80;99.90
38902;DHT22;24661;53.566;9.910;2023-02-19T00:30:52;5.00;99.90
38902;DHT22;24661;53.566;9.910;2023-02-19T00:33:18;4.90;99.90
38902;DHT22;24661;53.566;9.910;2023-02-19T00:35:44;5.00;99.90
38902;DHT22;24661;53.566;9.910;2023-02-19T00:38:09;5.00;99.90
38902;DHT22;24661;53.566;9.910;2023-02-19T00:40:35;5.00;99.90
38902;DHT22;24661;53.566;9.910;2023-02-19T00:43:00;4.90;99.90
38902;DHT22;24661;53.566;9.910;2023-02-19T00:45:26;5.00;99.90
38902;DHT22;24661;53.566;9.910;2023-02-19T00:47:52;4.90;99.90
38902;DHT22;24661;53.566;9.910;2023-02-19T00:50:17;4.90;99.90
38902;DHT22;24661;53.566;9.910;2023-02-19T00:52:43;4.90;99.90
38902;DHT22;24661;53.566;9.910;2023-02-19T00:55:09;4.80;99.90
38902;DHT22;24661;53.566;9.910;2023-02-19T00:57:34;4.90;99.90
38902;DHT22;24661;53.566;9.910;2023-02-19T01:00:00;4.90;99.90
38902;DHT22;24661;53.566;9.910;2023-02-19T01:02:26;4.90;99.90
38902;DHT22;24661;53.566;9.910;2023-02-19T01:04:52;4.90;99.90
38902;DHT22;24661;53.566;9.910;2023-02-19T01:07:18;4.90;99.90
38902;DHT22;24661;53.566;9.910;2023-02-19T01:09:43;4.80;99.90
38902;DHT22;24661;53.566;9.910;2023-02-19T01:12:09;4.80;99.90
38902;DHT22;24661;53.566;9.910;2023-02-19T01:14:34;4.90;99.90
38902;DHT22;24661;53.566;9.910;2023-02-19T01:17:00;4.80;99.90
38902;DHT22;24661;53.566;9.910;2023-02-19T01:19:26;4.90;99.90
38902;DHT22;24661;53.566;9.910;2023-02-19T01:21:51;4.80;99.90
38902;DHT22;24661;53.566;9.910;2023-02-19T01:24:17;4.80;99.90
38902;DHT22;24661;53.566;9.910;2023-02-19T01:26:42;4.80;99.90
38902;DHT22;24661;53.566;9.910;2023-02-19T01:29:09;4.70;99.90
38902;DHT22;24661;53.566;9.910;2023-02-19T01:31:34;4.70;99.90
38902;DHT22;24661;53.566;9.910;2023-02-19T01:34:02;4.70;99.90
38902;DHT22;24661;53.566;9.910;2023-02-19T01:36:31;4.70;99.90
38902;DHT22;24661;53.566;9.910;2023-02-19T01:38:59;4.80;99.90
38902;DHT22;24661;53.566;9.910;2023-02-19T01:41:28;4.80;99.90
38902;DHT22;24661;53.566;9.910;2023-02-19T01:44:03;4.70;99.90
38902;DHT22;24661;53.566;9.910;2023-02-19T01:46:33;4.80;99.90
38902;DHT22;24661;53.566;9.910;2023-02-19T01:49:12;4.70;99.90
38902;DHT22;24661;53.566;9.910;2023-02-19T01:51:44;4.60;99.90
38902;DHT22;24661;53.566;9.910;2023-02-19T01:54:12;4.60;99.90
38902;DHT22;24661;53.566;9.910;2023-02-19T01:56:41;4.50;99.90
38902;DHT22;24661;53.566;9.910;2023-02-19T01:59:08;4.50;99.90
38902;DHT22;24661;53.566;9.910;2023-02-19T02:01:36;4.50;99.90
38902;DHT22;24661;53.566;9.910;2023-02-19T02:04:04;4.50;99.90
38902;DHT22;24661;53.566;9.910;2023-02-19T02:06:34;4.40;99.90
38902;DHT22;24661;53.566;9.910;2023-02-19T02:09:02;4.40;99.90
38902;DHT22;24661;53.566;9.910;2023-02-19T02:11:51;4.40;99.90
38902;DHT22;24661;53.566;9.910;2023-02-19T02:14:21;4.40;99.90
38902;DHT22;24661;53.566;9.910;2023-02-19T02:20:01;4.40;99.90
38902;DHT22;24661;53.566;9.910;2023-02-19T02:22:39;4.30;99.90
38902;DHT22;24661;53.566;9.910;2023-02-19T02:25:24;4.30;99.90
38902;DHT22;24661;53.566;9.910;2023-02-19T02:28:12;4.30;99.90
38902;DHT22;24661;53.566;9.910;2023-02-19T02:30:54;4.30;99.90
38902;DHT22;24661;53.566;9.910;2023-02-19T02:36:11;4.20;99.90
38902;DHT22;24661;53.566;9.910;2023-02-19T02:38:40;4.20;99.90
38902;DHT22;24661;53.566;9.910;2023-02-19T02:41:07;4.20;99.90
38902;DHT22;24661;53.566;9.910;2023-02-19T02:43:33;4.10;99.90
38902;DHT22;24661;53.566;9.910;2023-02-19T02:45:58;4.10;99.90
38902;DHT22;24661;53.566;9.910;2023-02-19T02:53:34;3.90;99.90
38902;DHT22;24661;53.566;9.910;2023-02-19T02:56:20;3.90;99.90
38902;DHT22;24661;53.566;9.910;2023-02-19T02:58:48;3.80;99.90
38902;DHT22;24661;53.566;9.910;2023-02-19T03:04:40;3.90;99.90
38902;DHT22;24661;53.566;9.910;2023-02-19T03:07:33;3.90;99.90
38902;DHT22;24661;53.566;9.910;2023-02-19T03:10:02;3.90;99.90
38902;DHT22;24661;53.566;9.910;2023-02-19T03:12:29;3.90;99.90
38902;DHT22;24661;53.566;9.910;2023-02-19T03:15:18;3.90;99.90
38902;DHT22;24661;53.566;9.910;2023-02-19T03:18:05;3.90;99.90
38902;DHT22;24661;53.566;9.910;2023-02-19T03:20:54;3.90;99.90
38902;DHT22;24661;53.566;9.910;2023-02-19T03:23:26;3.90;99.90
38902;DHT22;24661;53.566;9.910;2023-02-19T03:26:12;3.90;99.90
38902;DHT22;24661;53.566;9.910;2023-02-19T03:28:40;4.00;99.90
38902;DHT22;24661;53.566;9.910;2023-02-19T03:31:29;4.00;99.90
38902;DHT22;24661;53.566;9.910;2023-02-19T03:33:59;3.90;99.90
38902;DHT22;24661;53.566;9.910;2023-02-19T03:36:30;3.90;99.90
38902;DHT22;24661;53.566;9.910;2023-02-19T03:39:02;3.90;99.90
38902;DHT22;24661;53.566;9.910;2023-02-19T03:41:35;3.90;99.90
38902;DHT22;24661;53.566;9.910;2023-02-19T03:44:10;3.80;99.90
38902;DHT22;24661;53.566;9.910;2023-02-19T03:46:59;3.80;99.90
38902;DHT22;24661;53.566;9.910;2023-02-19T03:50:00;3.80;99.90
38902;DHT22;24661;53.566;9.910;2023-02-19T03:52:40;3.80;99.90
38902;DHT22;24661;53.566;9.910;2023-02-19T03:55:15;3.90;99.90
38902;DHT22;24661;53.566;9.910;2023-02-19T03:57:52;3.80;99.90
38902;DHT22;24661;53.566;9.910;2023-02-19T04:00:35;3.80;99.90
38902;DHT22;24661;53.566;9.910;2023-02-19T04:06:35;3.80;99.90
38902;DHT22;24661;53.566;9.910;2023-02-19T04:08:37;3.60;99.90
38902;DHT22;24661;53.566;9.910;2023-02-19T04:11:03;3.80;99.90
38902;DHT22;24661;53.566;9.910;2023-02-19T04:13:37;3.70;99.90
38902;DHT22;24661;53.566;9.910;2023-02-19T04:16:09;3.70;99.90
38902;DHT22;24661;53.566;9.910;2023-02-19T04:18:39;3.70;99.90
38902;DHT22;24661;53.566;9.910;2023-02-19T04:21:07;3.70;99.90
38902;DHT22;24661;53.566;9.910;2023-02-19T04:23:37;3.60;99.90
38902;DHT22;24661;53.566;9.910;2023-02-19T04:26:04;3.60;99.90
38902;DHT22;24661;53.566;9.910;2023-02-19T04:28:32;3.60;99.90
38902;DHT22;24661;53.566;9.910;2023-02-19T04:30:58;3.50;99.90
38902;DHT22;24661;53.566;9.910;2023-02-19T04:33:24;3.50;99.90
38902;DHT22;24661;53.566;9.910;2023-02-19T04:35:49;3.50;99.90
38902;DHT22;24661;53.566;9.910;2023-02-19T04:38:15;3.50;99.90
38902;DHT22;24661;53.566;9.910;2023-02-19T04:40:40;3.60;99.90
38902;DHT22;24661;53.566;9.910;2023-02-19T04:43:06;3.50;99.90
38902;DHT22;24661;53.566;9.910;2023-02-19T04:45:31;3.50;99.90
38902;DHT22;24661;53.566;9.910;2023-02-19T04:47:57;3.50;99.90
38902;DHT22;24661;53.566;9.910;2023-02-19T04:50:23;3.50;99.90
38902;DHT22;24661;53.566;9.910;2023-02-19T04:52:49;3.50;99.90
38902;DHT22;24661;53.566;9.910;2023-02-19T04:55:15;3.50;99.90
38902;DHT22;24661;53.566;9.910;2023-02-19T04:57:40;3.50;99.90
38902;DHT22;24661;53.566;9.910;2023-02-19T05:00:06;3.50;99.90
38902;DHT22;24661;53.566;9.910;2023-02-19T05:02:32;3.40;99.90
38902;DHT22;24661;53.566;9.910;2023-02-19T05:04:58;3.60;99.90
38902;DHT22;24661;53.566;9.910;2023-02-19T05:07:23;3.60;99.90
38902;DHT22;24661;53.566;9.910;2023-02-19T05:09:49;3.60;99.90
38902;DHT22;24661;53.566;9.910;2023-02-19T05:12:14;3.50;99.90
38902;DHT22;24661;53.566;9.910;2023-02-19T05:14:40;3.60;99.90
38902;DHT22;24661;53.566;9.910;2023-02-19T05:17:05;3.50;99.90
38902;DHT22;24661;53.566;9.910;2023-02-19T05:19:31;3.50;99.90
38902;DHT22;24661;53.566;9.910;2023-02-19T05:21:57;3.50;99.90
38902;DHT22;24661;53.566;9.910;2023-02-19T05:24:22;3.40;99.90
38902;DHT22;24661;53.566;9.910;2023-02-19T05:26:49;3.40;99.90
38902;DHT22;24661;53.566;9.910;2023-02-19T05:29:14;3.30;99.90
38902;DHT22;24661;53.566;9.910;2023-02-19T05:31:40;3.30;99.90
38902;DHT22;24661;53.566;9.910;2023-02-19T05:34:06;3.30;99.90
38902;DHT22;24661;53.566;9.910;2023-02-19T05:36:31;3.30;99.90
38902;DHT22;24661;53.566;9.910;2023-02-19T05:38:57;3.20;99.90
38902;DHT22;24661;53.566;9.910;2023-02-19T05:41:25;3.20;99.90
38902;DHT22;24661;53.566;9.910;2023-02-19T05:43:51;3.10;99.90
38902;DHT22;24661;53.566;9.910;2023-02-19T05:46:20;3.20;99.90
38902;DHT22;24661;53.566;9.910;2023-02-19T05:48:47;3.10;99.90
38902;DHT22;24661;53.566;9.910;2023-02-19T05:51:15;3.10;99.90
38902;DHT22;24661;53.566;9.910;2023-02-19T05:53:42;3.10;99.90
38902;DHT22;24661;53.566;9.910;2023-02-19T05:56:34;3.10;99.90
38902;DHT22;24661;53.566;9.910;2023-02-19T05:59:06;3.00;99.90
38902;DHT22;24661;53.566;9.910;2023-02-19T06:01:34;3.10;99.90
38902;DHT22;24661;53.566;9.910;2023-02-19T06:03:59;3.10;99.90
38902;DHT22;24661;53.566;9.910;2023-02-19T06:06:26;3.00;99.90
38902;DHT22;24661;53.566;9.910;2023-02-19T06:08:51;3.00;99.90
38902;DHT22;24661;53.566;9.910;2023-02-19T06:11:18;3.10;99.90
38902;DHT22;24661;53.566;9.910;2023-02-19T06:13:44;3.00;99.90
38902;DHT22;24661;53.566;9.910;2023-02-19T06:16:12;3.00;99.90
38902;DHT22;24661;53.566;9.910;2023-02-19T06:18:37;3.00;99.90
38902;DHT22;24661;53.566;9.910;2023-02-19T06:21:06;2.90;99.90
38902;DHT22;24661;53.566;9.910;2023-02-19T06:23:33;2.90;99.90
38902;DHT22;24661;53.566;9.910;2023-02-19T06:26:19;2.90;99.90
38902;DHT22;24661;53.566;9.910;2023-02-19T06:28:47;2.90;99.90
38902;DHT22;24661;53.566;9.910;2023-02-19T06:31:14;2.90;99.90
38902;DHT22;24661;53.566;9.910;2023-02-19T06:33:40;2.90;99.90
38902;DHT22;24661;53.566;9.910;2023-02-19T06:36:14;2.90;99.90
38902;DHT22;24661;53.566;9.910;2023-02-19T06:38:40;3.00;99.90
38902;DHT22;24661;53.566;9.910;2023-02-19T06:41:07;2.90;99.90
38902;DHT22;24661;53.566;9.910;2023-02-19T06:43:34;2.90;99.90
38902;DHT22;24661;53.566;9.910;2023-02-19T06:46:01;2.90;99.90
38902;DHT22;24661;53.566;9.910;2023-02-19T06:48:28;2.90;99.90
38902;DHT22;24661;53.566;9.910;2023-02-19T06:50:54;2.90;99.90
38902;DHT22;24661;53.566;9.910;2023-02-19T06:53:20;2.90;99.90
38902;DHT22;24661;53.566;9.910;2023-02-19T06:56:04;4.50;99.90
38902;DHT22;24661;53.566;9.910;2023-02-19T06:58:30;2.90;99.90
38902;DHT22;24661;53.566;9.910;2023-02-19T07:00:56;2.90;99.90
38902;DHT22;24661;53.566;9.910;2023-02-19T07:03:22;2.90;99.90
38902;DHT22;24661;53.566;9.910;2023-02-19T07:05:47;2.80;99.90
38902;DHT22;24661;53.566;9.910;2023-02-19T07:08:13;2.90;99.90
38902;DHT22;24661;53.566;9.910;2023-02-19T07:10:42;2.90;99.90
38902;DHT22;24661;53.566;9.910;2023-02-19T07:13:07;2.80;99.90
38902;DHT22;24661;53.566;9.910;2023-02-19T07:15:33;2.90;99.90
38902;DHT22;24661;53.566;9.910;2023-02-19T07:17:59;2.90;99.90
38902;DHT22;24661;53.566;9.910;2023-02-19T07:20:24;2.90;99.90
38902;DHT22;24661;53.566;9.910;2023-02-19T07:22:50;2.90;99.90
38902;DHT22;24661;53.566;9.910;2023-02-19T07:25:15;3.00;99.90
38902;DHT22;24661;53.566;9.910;2023-02-19T07:27:41;3.00;99.90
38902;DHT22;24661;53.566;9.910;2023-02-19T07:30:07;3.00;99.90
38902;DHT22;24661;53.566;9.910;2023-02-19T07:32:32;3.00;99.90
38902;DHT22;24661;53.566;9.910;2023-02-19T07:34:58;3.10;99.90
38902;DHT22;24661;53.566;9.910;2023-02-19T07:37:23;3.20;99.90
38902;DHT22;24661;53.566;9.910;2023-02-19T07:39:49;3.20;99.90
38902;DHT22;24661;53.566;9.910;2023-02-19T07:42:15;3.30;99.90
38902;DHT22;24661;53.566;9.910;2023-02-19T07:44:40;3.30;99.90
38902;DHT22;24661;53.566;9.910;2023-02-19T07:47:06;3.30;99.90
38902;DHT22;24661;53.566;9.910;2023-02-19T07:49:31;3.30;99.90
38902;DHT22;24661;53.566;9.910;2023-02-19T07:51:57;3.30;99.90
38902;DHT22;24661;53.566;9.910;2023-02-19T07:54:23;3.30;99.90
38902;DHT22;24661;53.566;9.910;2023-02-19T07:56:48;3.30;99.90
38902;DHT22;24661;53.566;9.910;2023-02-19T07:59:15;3.30;99.90
38902;DHT22;24661;53.566;9.910;2023-02-19T08:01:43;3.30;99.90
38902;DHT22;24661;53.566;9.910;2023-02-19T08:04:27;3.30;99.90
38902;DHT22;24661;53.566;9.910;2023-02-19T08:06:53;3.20;99.90
38902;DHT22;24661;53.566;9.910;2023-02-19T08:09:18;3.20;99.90
38902;DHT22;24661;53.566;9.910;2023-02-19T08:11:44;3.20;99.90
38902;DHT22;24661;53.566;9.910;2023-02-19T08:14:28;3.30;99.90
38902;DHT22;24661;53.566;9.910;2023-02-19T08:16:54;3.30;99.90
38902;DHT22;24661;53.566;9.910;2023-02-19T08:19:20;3.30;99.90
38902;DHT22;24661;53.566;9.910;2023-02-19T08:21:46;3.40;99.90
38902;DHT22;24661;53.566;9.910;2023-02-19T08:24:11;3.40;99.90
38902;DHT22;24661;53.566;9.910;2023-02-19T08:26:37;3.50;99.90
38902;DHT22;24661;53.566;9.910;2023-02-19T08:29:04;3.50;99.90
38902;DHT22;24661;53.566;9.910;2023-02-19T08:31:30;3.60;99.90
38902;DHT22;24661;53.566;9.910;2023-02-19T08:33:56;3.70;99.90
38902;DHT22;24661;53.566;9.910;2023-02-19T08:36:21;3.70;99.90
38902;DHT22;24661;53.566;9.910;2023-02-19T08:38:47;3.80;99.90
38902;DHT22;24661;53.566;9.910;2023-02-19T08:41:13;3.80;99.90
38902;DHT22;24661;53.566;9.910;2023-02-19T08:43:40;3.90;99.90
38902;DHT22;24661;53.566;9.910;2023-02-19T08:46:06;4.00;99.90
38902;DHT22;24661;53.566;9.910;2023-02-19T08:48:34;4.00;99.90
38902;DHT22;24661;53.566;9.910;2023-02-19T08:51:03;4.10;99.90
38902;DHT22;24661;53.566;9.910;2023-02-19T08:53:31;4.10;99.90
38902;DHT22;24661;53.566;9.910;2023-02-19T08:55:57;4.20;99.90
38902;DHT22;24661;53.566;9.910;2023-02-19T08:58:22;4.30;99.90
38902;DHT22;24661;53.566;9.910;2023-02-19T09:00:51;4.30;99.90
38902;DHT22;24661;53.566;9.910;2023-02-19T09:03:17;6.40;99.90
38902;DHT22;24661;53.566;9.910;2023-02-19T09:05:42;4.50;99.90
38902;DHT22;24661;53.566;9.910;2023-02-19T09:08:08;4.50;99.90
38902;DHT22;24661;53.566;9.910;2023-02-19T09:10:35;4.60;99.90
38902;DHT22;24661;53.566;9.910;2023-02-19T09:13:00;4.60;99.90
38902;DHT22;24661;53.566;9.910;2023-02-19T09:15:27;4.70;99.90
38902;DHT22;24661;53.566;9.910;2023-02-19T09:17:54;4.80;99.90
38902;DHT22;24661;53.566;9.910;2023-02-19T09:20:19;4.90;99.90
38902;DHT22;24661;53.566;9.910;2023-02-19T09:22:45;5.00;99.90
38902;DHT22;24661;53.566;9.910;2023-02-19T09:25:11;5.00;99.90
38902;DHT22;24661;53.566;9.910;2023-02-19T09:27:36;5.10;99.90
38902;DHT22;24661;53.566;9.910;2023-02-19T09:30:03;5.20;99.90
38902;DHT22;24661;53.566;9.910;2023-02-19T09:32:30;5.20;99.90
38902;DHT22;24661;53.566;9.910;2023-02-19T09:34:56;5.20;99.90
38902;DHT22;24661;53.566;9.910;2023-02-19T09:37:28;5.30;99.90
38902;DHT22;24661;53.566;9.910;2023-02-19T09:39:54;5.40;99.90
38902;DHT22;24661;53.566;9.910;2023-02-19T09:42:22;5.40;99.90
38902;DHT22;24661;53.566;9.910;2023-02-19T09:44:51;5.50;99.90
38902;DHT22;24661;53.566;9.910;2023-02-19T09:47:20;5.60;99.90
38902;DHT22;24661;53.566;9.910;2023-02-19T09:49:53;5.60;99.90
38902;DHT22;24661;53.566;9.910;2023-02-19T09:55:00;5.60;99.90
38902;DHT22;24661;53.566;9.910;2023-02-19T09:57:29;5.80;99.90
38902;DHT22;24661;53.566;9.910;2023-02-19T10:02:45;6.00;99.90
38902;DHT22;24661;53.566;9.910;2023-02-19T10:05:25;6.10;99.90
38902;DHT22;24661;53.566;9.910;2023-02-19T10:07:59;6.10;99.90
38902;DHT22;24661;53.566;9.910;2023-02-19T10:10:33;6.10;99.90
38902;DHT22;24661;53.566;9.910;2023-02-19T10:13:18;6.10;99.90
38902;DHT22;24661;53.566;9.910;2023-02-19T10:15:58;6.20;99.90
38902;DHT22;24661;53.566;9.910;2023-02-19T10:18:27;6.10;99.90
38902;DHT22;24661;53.566;9.910;2023-02-19T10:20:54;6.20;99.90
38902;DHT22;24661;53.566;9.910;2023-02-19T10:23:21;6.30;99.90
38902;DHT22;24661;53.566;9.910;2023-02-19T10:25:52;6.30;99.90
38902;DHT22;24661;53.566;9.910;2023-02-19T10:28:21;6.30;99.90
38902;DHT22;24661;53.566;9.910;2023-02-19T10:30:58;7.90;99.90
38902;DHT22;24661;53.566;9.910;2023-02-19T10:33:25;6.50;99.90
38902;DHT22;24661;53.566;9.910;2023-02-19T10:38:28;6.70;99.90
38902;DHT22;24661;53.566;9.910;2023-02-19T10:41:21;6.70;99.90
38902;DHT22;24661;53.566;9.910;2023-02-19T10:43:56;6.70;99.90
38902;DHT22;24661;53.566;9.910;2023-02-19T10:46:34;6.70;99.90
38902;DHT22;24661;53.566;9.910;2023-02-19T10:49:04;6.80;99.90
38902;DHT22;24661;53.566;9.910;2023-02-19T10:51:35;6.80;99.90
38902;DHT22;24661;53.566;9.910;2023-02-19T10:54:23;6.90;99.90
38902;DHT22;24661;53.566;9.910;2023-02-19T10:56:49;6.90;99.90
38902;DHT22;24661;53.566;9.910;2023-02-19T11:04:19;7.00;99.90
38902;DHT22;24661;53.566;9.910;2023-02-19T11:06:46;7.10;99.90
38902;DHT22;24661;53.566;9.910;2023-02-19T11:09:33;7.20;99.90
38902;DHT22;24661;53.566;9.910;2023-02-19T11:12:01;7.30;99.90
38902;DHT22;24661;53.566;9.910;2023-02-19T11:14:30;7.30;99.90
38902;DHT22;24661;53.566;9.910;2023-02-19T11:16:58;7.30;99.90
38902;DHT22;24661;53.566;9.910;2023-02-19T11:19:33;7.20;99.90
38902;DHT22;24661;53.566;9.910;2023-02-19T11:22:01;7.30;99.90
38902;DHT22;24661;53.566;9.910;2023-02-19T11:24:47;7.20;99.90
38902;DHT22;24661;53.566;9.910;2023-02-19T11:27:20;7.20;99.90
38902;DHT22;24661;53.566;9.910;2023-02-19T11:29:46;7.70;99.90
38902;DHT22;24661;53.566;9.910;2023-02-19T11:32:27;7.10;99.90
38902;DHT22;24661;53.566;9.910;2023-02-19T11:35:20;7.10;99.90
38902;DHT22;24661;53.566;9.910;2023-02-19T11:37:59;6.90;99.90
38902;DHT22;24661;53.566;9.910;2023-02-19T11:41:21;6.80;99.90
38902;DHT22;24661;53.566;9.910;2023-02-19T11:46:12;6.90;99.90
38902;DHT22;24661;53.566;9.910;2023-02-19T11:56:33;7.30;99.90
38902;DHT22;24661;53.566;9.910;2023-02-19T11:59:04;7.50;99.90
38902;DHT22;24661;53.566;9.910;2023-02-19T12:02:14;7.60;99.90
38902;DHT22;24661;53.566;9.910;2023-02-19T12:05:02;7.80;99.90
38902;DHT22;24661;53.566;9.910;2023-02-19T12:10:35;8.00;99.90
38902;DHT22;24661;53.566;9.910;2023-02-19T12:13:26;8.00;99.90
38902;DHT22;24661;53.566;9.910;2023-02-19T12:25:09;7.90;99.90
38902;DHT22;24661;53.566;9.910;2023-02-19T12:32:58;8.00;99.90
38902;DHT22;24661;53.566;9.910;2023-02-19T12:36:23;8.10;99.90
38902;DHT22;24661;53.566;9.910;2023-02-19T12:38:34;8.20;99.90
38902;DHT22;24661;53.566;9.910;2023-02-19T12:41:22;8.40;99.90
38902;DHT22;24661;53.566;9.910;2023-02-19T12:43:52;8.40;99.90
38902;DHT22;24661;53.566;9.910;2023-02-19T12:46:23;8.50;99.90
38902;DHT22;24661;53.566;9.910;2023-02-19T12:48:59;8.50;99.90
38902;DHT22;24661;53.566;9.910;2023-02-19T12:51:32;8.50;99.90
38902;DHT22;24661;53.566;9.910;2023-02-19T12:54:09;8.70;99.90
38902;DHT22;24661;53.566;9.910;2023-02-19T12:57:07;8.70;99.90
38902;DHT22;24661;53.566;9.910;2023-02-19T12:59:54;8.80;99.90
38902;DHT22;24661;53.566;9.910;2023-02-19T13:07:45;8.70;99.90
38902;DHT22;24661;53.566;9.910;2023-02-19T13:10:24;8.70;99.90
38902;DHT22;24661;53.566;9.910;2023-02-19T13:12:52;8.80;99.90
38902;DHT22;24661;53.566;9.910;2023-02-19T13:15:37;8.70;99.90
38902;DHT22;24661;53.566;9.910;2023-02-19T13:18:11;8.70;99.90
38902;DHT22;24661;53.566;9.910;2023-02-19T13:20:41;8.70;99.90
38902;DHT22;24661;53.566;9.910;2023-02-19T13:23:35;8.70;99.90
38902;DHT22;24661;53.566;9.910;2023-02-19T13:38:03;8.10;99.90
38902;DHT22;24661;53.566;9.910;2023-02-19T13:40:34;8.10;99.90
38902;DHT22;24661;53.566;9.910;2023-02-19T13:43:03;8.10;99.90
38902;DHT22;24661;53.566;9.910;2023-02-19T13:45:41;8.10;99.90
38902;DHT22;24661;53.566;9.910;2023-02-19T13:50:49;8.30;99.90
38902;DHT22;24661;53.566;9.910;2023-02-19T14:07:21;8.20;99.90
38902;DHT22;24661;53.566;9.910;2023-02-19T14:09:57;8.20;99.90
38902;DHT22;24661;53.566;9.910;2023-02-19T14:12:33;8.20;99.90
38902;DHT22;24661;53.566;9.910;2023-02-19T14:17:59;8.40;99.90
38902;DHT22;24661;53.566;9.910;2023-02-19T14:20:40;8.40;99.90
38902;DHT22;24661;53.566;9.910;2023-02-19T14:23:22;8.40;99.90
38902;DHT22;24661;53.566;9.910;2023-02-19T14:25:57;8.30;99.90
38902;DHT22;24661;53.566;9.910;2023-02-19T14:28:27;8.20;99.90
38902;DHT22;24661;53.566;9.910;2023-02-19T14:34:00;8.10;99.90
38902;DHT22;24661;53.566;9.910;2023-02-19T14:36:33;8.10;99.90
38902;DHT22;24661;53.566;9.910;2023-02-19T14:39:04;8.10;99.90
38902;DHT22;24661;53.566;9.910;2023-02-19T14:41:33;8.00;99.90
38902;DHT22;24661;53.566;9.910;2023-02-19T14:44:02;7.90;99.90
38902;DHT22;24661;53.566;9.910;2023-02-19T14:46:38;7.90;99.90
38902;DHT22;24661;53.566;9.910;2023-02-19T14:49:29;7.90;99.90
38902;DHT22;24661;53.566;9.910;2023-02-19T14:52:00;7.80;99.90
38902;DHT22;24661;53.566;9.910;2023-02-19T14:54:42;7.70;99.90
38902;DHT22;24661;53.566;9.910;2023-02-19T14:57:24;7.70;99.90
38902;DHT22;24661;53.566;9.910;2023-02-19T15:02:46;7.50;99.90
38902;DHT22;24661;53.566;9.910;2023-02-19T15:05:23;7.50;99.90
38902;DHT22;24661;53.566;9.910;2023-02-19T15:07:49;7.50;99.90
38902;DHT22;24661;53.566;9.910;2023-02-19T15:10:15;7.50;99.90
38902;DHT22;24661;53.566;9.910;2023-02-19T15:13:00;7.50;99.90
38902;DHT22;24661;53.566;9.910;2023-02-19T15:15:30;7.50;99.90
38902;DHT22;24661;53.566;9.910;2023-02-19T15:17:58;7.40;99.90
38902;DHT22;24661;53.566;9.910;2023-02-19T15:20:32;7.40;99.90
38902;DHT22;24661;53.566;9.910;2023-02-19T15:23:00;7.30;99.90
38902;DHT22;24661;53.566;9.910;2023-02-19T15:25:31;8.90;99.90
38902;DHT22;24661;53.566;9.910;2023-02-19T15:28:38;7.20;99.90
38902;DHT22;24661;53.566;9.910;2023-02-19T15:31:04;7.30;99.90
38902;DHT22;24661;53.566;9.910;2023-02-19T15:33:32;7.20;99.90
38902;DHT22;24661;53.566;9.910;2023-02-19T15:36:01;7.20;99.90
38902;DHT22;24661;53.566;9.910;2023-02-19T15:38:29;7.20;99.90
38902;DHT22;24661;53.566;9.910;2023-02-19T15:40:54;7.10;99.90
38902;DHT22;24661;53.566;9.910;2023-02-19T15:43:37;7.10;99.90
38902;DHT22;24661;53.566;9.910;2023-02-19T15:46:13;7.10;99.90
38902;DHT22;24661;53.566;9.910;2023-02-19T15:54:40;7.00;99.90
38902;DHT22;24661;53.566;9.910;2023-02-19T15:57:03;6.90;99.90
38902;DHT22;24661;53.566;9.910;2023-02-19T15:59:40;6.90;99.90
38902;DHT22;24661;53.566;9.910;2023-02-19T16:02:12;6.90;99.90
38902;DHT22;24661;53.566;9.910;2023-02-19T16:04:39;6.80;99.90
38902;DHT22;24661;53.566;9.910;2023-02-19T16:07:22;6.80;99.90
38902;DHT22;24661;53.566;9.910;2023-02-19T16:09:48;6.80;99.90
38902;DHT22;24661;53.566;9.910;2023-02-19T16:12:21;6.80;99.90
38902;DHT22;24661;53.566;9.910;2023-02-19T16:14:47;6.70;99.90
38902;DHT22;24661;53.566;9.910;2023-02-19T16:17:17;6.70;99.90
38902;DHT22;24661;53.566;9.910;2023-02-19T16:19:59;6.70;99.90
38902;DHT22;24661;53.566;9.910;2023-02-19T16:22:30;6.60;99.90
38902;DHT22;24661;53.566;9.910;2023-02-19T16:25:01;6.60;99.90
38902;DHT22;24661;53.566;9.910;2023-02-19T16:27:36;6.50;99.90
38902;DHT22;24661;53.566;9.910;2023-02-19T16:32:42;6.40;99.90
38902;DHT22;24661;53.566;9.910;2023-02-19T16:35:38;6.40;99.90
38902;DHT22;24661;53.566;9.910;2023-02-19T16:38:14;6.40;99.90
38902;DHT22;24661;53.566;9.910;2023-02-19T16:43:58;6.30;99.90
38902;DHT22;24661;53.566;9.910;2023-02-19T16:46:16;6.30;99.90
38902;DHT22;24661;53.566;9.910;2023-02-19T16:48:42;6.20;99.90
38902;DHT22;24661;53.566;9.910;2023-02-19T16:51:16;6.20;99.90
38902;DHT22;24661;53.566;9.910;2023-02-19T16:53:42;6.10;99.90
38902;DHT22;24661;53.566;9.910;2023-02-19T16:56:15;6.10;99.90
38902;DHT22;24661;53.566;9.910;2023-02-19T16:58:42;6.00;99.90
38902;DHT22;24661;53.566;9.910;2023-02-19T17:01:08;6.00;99.90
38902;DHT22;24661;53.566;9.910;2023-02-19T17:03:37;6.00;99.90
38902;DHT22;24661;53.566;9.910;2023-02-19T17:06:03;6.00;99.90
38902;DHT22;24661;53.566;9.910;2023-02-19T17:08:37;5.90;99.90
38902;DHT22;24661;53.566;9.910;2023-02-19T17:11:06;5.80;99.90
38902;DHT22;24661;53.566;9.910;2023-02-19T17:13:34;5.80;99.90
38902;DHT22;24661;53.566;9.910;2023-02-19T17:16:00;5.80;99.90
38902;DHT22;24661;53.566;9.910;2023-02-19T17:18:26;5.80;99.90
38902;DHT22;24661;53.566;9.910;2023-02-19T17:20:57;5.70;99.90
38902;DHT22;24661;53.566;9.910;2023-02-19T17:23:24;5.70;99.90
38902;DHT22;24661;53.566;9.910;2023-02-19T17:25:50;5.80;99.90
38902;DHT22;24661;53.566;9.910;2023-02-19T17:28:15;5.70;99.90
38902;DHT22;24661;53.566;9.910;2023-02-19T17:30:41;5.80;99.90
38902;DHT22;24661;53.566;9.910;2023-02-19T17:33:06;5.80;99.90
38902;DHT22;24661;53.566;9.910;2023-02-19T17:35:32;5.80;99.90
38902;DHT22;24661;53.566;9.910;2023-02-19T17:37:57;5.80;99.90
38902;DHT22;24661;53.566;9.910;2023-02-19T17:40:28;5.80;99.90
38902;DHT22;24661;53.566;9.910;2023-02-19T17:42:54;5.80;99.90
38902;DHT22;24661;53.566;9.910;2023-02-19T17:45:20;5.80;99.90
38902;DHT22;24661;53.566;9.910;2023-02-19T17:47:46;5.80;99.90
38902;DHT22;24661;53.566;9.910;2023-02-19T17:50:14;5.90;99.90
38902;DHT22;24661;53.566;9.910;2023-02-19T17:52:41;5.90;99.90
38902;DHT22;24661;53.566;9.910;2023-02-19T17:55:07;5.90;99.90
38902;DHT22;24661;53.566;9.910;2023-02-19T17:57:33;5.90;99.90
38902;DHT22;24661;53.566;9.910;2023-02-19T17:59:59;5.90;99.90